Time,TemperatureF,DewpointF,PressureIn,WindDirection,WindDirectionDegrees,WindSpeedMPH,WindSpeedGustMPH,Humidity,HourlyPrecipIn,Conditions,Clouds,dailyrainin,SoftwareType,DateUTC
2013-02-05 00:11:00,46.0,42.0,-100.00,NW,315,0.0,1.0,84,-99.99,,,-99.99,,2013-02-05 08:11:00,
2013-02-05 01:41:00,45.0,41.0,-100.00,SE,135,7.0,12.0,85,-99.99,,,-99.99,,2013-02-05 09:41:00,
2013-02-05 02:10:00,45.0,41.0,-100.00,SE,135,5.0,9.0,86,-99.99,,,-99.99,,2013-02-05 10:10:00,
2013-02-05 02:11:00,46.0,41.0,-100.00,SE,135,6.0,8.0,84,-99.99,,,-99.99,,2013-02-05 10:11:00,
2013-02-05 02:40:00,45.0,41.0,-100.00,SE,135,6.0,9.0,86,-99.99,,,-99.99,,2013-02-05 10:40:00,
2013-02-05 03:10:00,45.0,41.0,-100.00,SE,135,7.0,12.0,84,-99.99,,,-99.99,,2013-02-05 11:10:00,
2013-02-05 03:22:00,45.0,41.0,-100.00,SE,135,8.0,11.0,86,-99.99,,,-99.99,,2013-02-05 11:22:00,
2013-02-05 03:42:00,45.0,41.0,-100.00,SE,135,11.0,16.0,85,-99.99,,,-99.99,,2013-02-05 11:42:00,
2013-02-05 04:11:00,45.0,42.0,-100.00,SE,135,8.0,13.0,87,-99.99,,,-99.99,,2013-02-05 12:11:00,
2013-02-05 04:42:00,45.0,42.0,-100.00,SE,135,8.0,11.0,88,-99.99,,,-99.99,,2013-02-05 12:42:00,
2013-02-05 05:10:00,45.0,42.0,-100.00,South,180,4.0,9.0,91,-99.99,,,-99.99,,2013-02-05 13:10:00,
2013-02-05 06:10:00,46.0,42.0,-100.00,East,90,8.0,16.0,86,-99.99,,,-99.99,,2013-02-05 14:10:00,
2013-02-05 07:10:00,46.0,42.0,-100.00,SE,135,10.0,16.0,86,-99.99,,,-99.99,,2013-02-05 15:10:00,
2013-02-05 07:40:00,46.0,42.0,-100.00,SE,135,10.0,13.0,88,-99.99,,,-99.99,,2013-02-05 15:40:00,
2013-02-05 07:41:00,46.0,42.0,-100.00,SE,135,10.0,14.0,85,-99.99,,,-99.99,,2013-02-05 15:41:00,
2013-02-05 08:40:00,45.0,42.0,-100.00,SE,135,9.0,14.0,89,-99.99,,,-99.99,,2013-02-05 16:40:00,
2013-02-05 08:51:00,45.0,42.0,-100.00,SE,135,8.0,14.0,88,-99.99,,,-99.99,,2013-02-05 16:51:00,
2013-02-05 09:40:00,47.0,43.0,-100.00,SE,135,10.0,14.0,86,-99.99,,,-99.99,,2013-02-05 17:40:00,
2013-02-05 10:11:00,47.0,43.0,-100.00,SE,135,9.0,15.0,86,-99.99,,,-99.99,,2013-02-05 18:11:00,
2013-02-05 10:42:00,48.0,43.0,-100.00,SE,135,9.0,17.0,83,-99.99,,,-99.99,,2013-02-05 18:42:00,
2013-02-05 11:11:00,49.0,44.0,-100.00,SE,135,9.0,15.0,83,-99.99,,,-99.99,,2013-02-05 19:11:00,
2013-02-05 13:11:00,51.0,46.0,-100.00,East,90,9.0,12.0,82,-99.99,,,-99.99,,2013-02-05 21:11:00,
2013-02-05 13:42:00,52.0,42.0,-100.00,East,90,8.0,13.0,69,-99.99,,,-99.99,,2013-02-05 21:42:00,
2013-02-05 14:10:00,53.0,40.0,-100.00,SE,135,6.0,12.0,61,-99.99,,,-99.99,,2013-02-05 22:10:00,
2013-02-05 14:40:00,52.0,42.0,-100.00,SE,135,8.0,12.0,68,-99.99,,,-99.99,,2013-02-05 22:40:00,
2013-02-05 15:10:00,52.0,43.0,-100.00,SE,135,9.0,17.0,69,-99.99,,,-99.99,,2013-02-05 23:10:00,
2013-02-05 15:40:00,51.0,42.0,-100.00,East,90,8.0,12.0,71,-99.99,,,-99.99,,2013-02-05 23:40:00,
2013-02-05 16:40:00,47.0,41.0,-100.00,SE,135,9.0,12.0,81,-99.99,,,-99.99,,2013-02-06 00:40:00,
2013-02-05 17:10:00,45.0,42.0,-100.00,South,180,3.0,7.0,90,-99.99,,,-99.99,,2013-02-06 01:10:00,
2013-02-05 17:11:00,51.0,42.0,-100.00,East,90,6.0,9.0,72,-99.99,,,-99.99,,2013-02-06 01:11:00,
2013-02-05 17:40:00,45.0,43.0,-100.00,NW,315,1.0,3.0,93,-99.99,,,-99.99,,2013-02-06 01:40:00,
2013-02-05 18:10:00,45.0,43.0,-100.00,West,270,1.0,3.0,94,-99.99,,,-99.99,,2013-02-06 02:10:00,
2013-02-05 18:52:00,45.0,43.0,-100.00,SW,225,0.0,2.0,94,-99.99,,,-99.99,,2013-02-06 02:52:00,
2013-02-05 19:10:00,46.0,43.0,-100.00,SE,135,8.0,11.0,89,-99.99,,,-99.99,,2013-02-06 03:10:00,
2013-02-05 19:40:00,46.0,43.0,-100.00,SE,135,6.0,10.0,89,-99.99,,,-99.99,,2013-02-06 03:40:00,
2013-02-05 19:42:00,46.0,43.0,-100.00,SE,135,6.0,9.0,90,-99.99,,,-99.99,,2013-02-06 03:42:00,
2013-02-05 20:41:00,45.0,42.0,-100.00,SE,135,8.0,12.0,89,-99.99,,,-99.99,,2013-02-06 04:41:00,
2013-02-05 21:10:00,45.0,41.0,-100.00,SE,135,8.0,12.0,87,-99.99,,,-99.99,,2013-02-06 05:10:00,
2013-02-05 21:12:00,45.0,42.0,-100.00,SE,135,9.0,13.0,89,-99.99,,,-99.99,,2013-02-06 05:12:00,
2013-02-05 21:40:00,45.0,41.0,-100.00,SE,135,8.0,10.0,88,-99.99,,,-99.99,,2013-02-06 05:40:00,
2013-02-05 22:10:00,44.0,41.0,-100.00,SE,135,8.0,14.0,88,-99.99,,,-99.99,,2013-02-06 06:10:00,